Impacts METAR Board
IDs:

KSEA - Seattle-Tacoma Intl, WA, US

Updated at: 0700 UTC 22 Oct 2021
Potential Impact None Slight Moderate High
Time 21/19Z 21/20Z 21/21Z 21/22Z 21/23Z 22/00Z 22/01Z 22/02Z 22/03Z 22/04Z 22/05Z 22/06Z 22/07Z
Temp66 69 68 68 68 68 58 55 55 55 57 57 55
Dewpt40 41 40 40 41 41 49 52 53 53 53 53 52
Altim29.80 29.78 29.77 29.72 29.68 29.66 29.72 29.78 29.79 29.81 29.80 29.81 29.79
VIS10 10 10 10 10 10 10 6 6 4 6 6 9
CIG80 150 90 90 80 80 85 70 32 41 70 65 35
CoverBKNBKNOVCBKNOVCOVCOVCOVCOVCOVCOVCOVCOVC
FltCatVFRVFRVFRVFRVFRVFRVFRVFRVFRMVFRVFRVFRVFR
WX---------------RA BR-RA BRRA BR-RA BR-RA BR-RA
WDir1201401301201101102702301401500130120
WSpd15 13 17 16 12 14 14 11 6 9 6 8 7
WGst-- -- 24 26 25 -- 20 -- -- -- -- -- --
Raw hourly METARs
KSEA 211853Z 12015KT 10SM BKN080 BKN160 BKN240 19/04 A2980 RMK AO2 PK WND 12026/1759 SLP095 T01890044
KSEA 211953Z 14013KT 10SM SCT080 BKN150 BKN250 21/05 A2978 RMK AO2 SLP089 T02060050
KSEA 212053Z 13017G24KT 10SM BKN090 OVC150 20/04 A2977 RMK AO2 SLP085 T02000044 56017
KSEA 212153Z 12016G26KT 10SM BKN090 BKN150 20/04 A2972 RMK AO2 PK WND 14026/2151 PRESFR SLP067 T02000044
KSEA 212253Z 11012G25KT 10SM FEW037 BKN080 OVC140 20/05 A2968 RMK AO2 PK WND 12028/2235 RAB17E26 SLP056 P0000 T02000050
KSEA 212353Z 11014KT 10SM OVC080 20/05 A2966 RMK AO2 SLP050 60000 T02000050 10206 20172 56035
KSEA 220053Z 27014G20KT 10SM OVC085 14/09 A2972 RMK AO2 PK WND 24030/0029 WSHFT 0019 RAB10E32B42E48 SLP069 P0000 T01440094
KSEA 220153Z 23011KT 6SM -RA BR OVC070 13/11 A2978 RMK AO2 RAB14 SLP091 P0002 T01280111
KSEA 220253Z 14006KT 6SM -RA BR FEW013 BKN032 OVC050 13/12 A2979 RMK AO2 SLP095 P0005 60007 T01280117 51044
KSEA 220353Z 15009KT 4SM RA BR FEW017 BKN041 OVC050 13/12 A2981 RMK AO2 SLP099 P0016 T01280117
KSEA 220453Z VRB06KT 6SM -RA BR OVC070 14/12 A2980 RMK AO2 SLP097 P0010 T01390117
KSEA 220553Z 13008KT 100V160 6SM -RA BR OVC065 14/12 A2981 RMK AO2 SLP099 P0007 60040 T01390117 10200 20122 51004
KSEA 220653Z 12007KT 9SM -RA BKN035 BKN049 OVC075 13/11 A2979 RMK AO2 SLP093 P0007 T01280111



Page loaded:  07:35 UTC  |   12:35 AM Pacific  |   01:35 AM Mountain  |   02:35 AM Central  |   03:35 AM Eastern

 

ADVISORIES

FORECASTS

FORECASTS

OBSERVATIONS

USER TOOLS

ABOUT US